Time;durP1;ratioP1;P1;durP2;ratioP2;P2;SDS_P1;SDS_P2;PMS_P1;PMS_P2;Temp;Humidity;BMP_temperature;BMP_pressure;BME280_temperature;BME280_humidity;BME280_pressure;Samples;Min_cycle;Max_cycle;Signal;HPM_P1;HPM_P2
2022/03/20 00:09:16;;;;;;;26.90;15.23;;;8.00;52.20;;;;;;20915611;28;20241;-63
2022/03/20 00:19:19;;;;;;;25.87;15.33;;;7.90;51.70;;;;;;20914882;28;20203;-62
2022/03/20 00:29:21;;;;;;;24.03;15.40;;;7.90;51.70;;;;;;20913856;28;20589;-63
2022/03/20 00:39:23;;;;;;;25.60;15.33;;;7.80;51.40;;;;;;20913015;28;20257;-62
2022/03/20 00:49:24;;;;;;;24.57;15.97;;;7.80;51.20;;;;;;20847969;28;20244;-63
2022/03/20 00:59:26;;;;;;;23.63;14.63;;;7.80;51.20;;;;;;20830946;28;20212;-63
2022/03/20 01:09:29;;;;;;;25.63;15.90;;;7.80;51.20;;;;;;20830113;28;20241;-62
2022/03/20 01:19:32;;;;;;;24.43;16.17;;;7.80;51.70;;;;;;20830299;28;20662;-64
2022/03/20 01:29:34;;;;;;;31.60;17.37;;;7.80;51.60;;;;;;20830649;28;20296;-62
2022/03/20 01:39:36;;;;;;;25.83;16.57;;;7.90;51.70;;;;;;20836966;28;20239;-63
2022/03/20 01:49:38;;;;;;;33.23;17.83;;;7.90;51.90;;;;;;20878591;28;20226;-62
2022/03/20 01:59:40;;;;;;;28.83;18.90;;;7.90;52.10;;;;;;20911127;28;20268;-64
2022/03/20 02:09:42;;;;;;;28.93;17.87;;;8.00;52.60;;;;;;20910451;28;20239;-63
2022/03/20 02:19:45;;;;;;;31.53;19.20;;;8.00;52.60;;;;;;20917430;28;20200;-68
2022/03/20 02:30:03;;;;;;;30.37;19.33;;;8.10;53.10;;;;;;20924920;28;20235;-62
2022/03/20 02:40:05;;;;;;;34.80;20.27;;;8.00;53.30;;;;;;20924468;28;20271;-64
2022/03/20 02:50:28;;;;;;;31.03;19.97;;;8.00;53.70;;;;;;20854361;28;20267;-63
2022/03/20 03:00:33;;;;;;;36.53;20.77;;;8.00;54.10;;;;;;20840556;28;20268;-63
2022/03/20 03:10:56;;;;;;;34.87;22.23;;;8.10;54.50;;;;;;20839999;28;20321;-62
2022/03/20 03:21:02;;;;;;;35.40;21.53;;;8.10;54.70;;;;;;20839298;28;20260;-63
2022/03/20 03:31:06;;;;;;;36.40;23.53;;;8.00;55.10;;;;;;20837402;28;20292;-63
2022/03/20 03:41:08;;;;;;;37.57;23.40;;;8.10;55.70;;;;;;20837596;28;20219;-64
2022/03/20 03:51:10;;;;;;;43.83;24.57;;;8.10;56.00;;;;;;20915149;28;20240;-63
2022/03/20 04:01:11;;;;;;;36.20;24.20;;;8.10;56.30;;;;;;20918116;28;20205;-63
2022/03/20 04:11:13;;;;;;;37.27;24.57;;;8.00;56.60;;;;;;20916996;28;20236;-62
2022/03/20 04:21:15;;;;;;;40.13;24.57;;;8.00;56.70;;;;;;20916423;28;20746;-63
2022/03/20 04:31:19;;;;;;;38.67;25.13;;;8.00;56.70;;;;;;20915351;28;20708;-62
2022/03/20 04:41:22;;;;;;;41.33;25.07;;;8.00;56.50;;;;;;20914301;28;20209;-62
2022/03/20 05:01:44;;;;;;;40.20;25.47;;;8.00;56.40;;;;;;20831046;28;20206;-62
2022/03/20 05:22:10;;;;;;;42.07;26.83;;;7.90;56.20;;;;;;20830279;28;20202;-63
2022/03/20 05:32:13;;;;;;;40.20;25.40;;;7.90;56.70;;;;;;20829524;28;20248;-65
2022/03/20 05:42:15;;;;;;;41.53;26.37;;;7.80;56.30;;;;;;20833431;28;20216;-65
2022/03/20 05:52:16;;;;;;;45.30;27.30;;;7.80;56.10;;;;;;20914637;28;20240;-64
2022/03/20 06:02:19;;;;;;;37.77;24.60;;;7.90;56.40;;;;;;20927318;28;20271;-65
2022/03/20 06:12:21;;;;;;;40.43;25.27;;;7.90;56.90;;;;;;20926379;28;20283;-63
2022/03/20 06:22:23;;;;;;;41.67;25.73;;;8.00;56.30;;;;;;20926519;28;20252;-61
2022/03/20 06:32:27;;;;;;;43.67;25.97;;;8.00;56.30;;;;;;20925057;28;20252;-62
2022/03/20 06:42:28;;;;;;;43.40;26.73;;;8.00;56.30;;;;;;20917543;28;20256;-65
2022/03/20 06:52:31;;;;;;;41.97;25.63;;;8.10;56.90;;;;;;20840584;28;20247;-69
2022/03/20 07:02:33;;;;;;;39.13;25.40;;;8.30;56.60;;;;;;20839686;28;20210;-62
2022/03/20 07:12:35;;;;;;;41.97;26.53;;;8.40;56.60;;;;;;20842515;28;20242;-65
2022/03/20 07:22:37;;;;;;;39.10;26.20;;;;;;;;;;20842289;28;20209;-66
2022/03/20 07:32:41;;;;;;;42.20;26.00;;;8.50;56.70;;;;;;20840065;28;20244;-64
2022/03/20 07:42:43;;;;;;;39.40;25.47;;;8.80;56.70;;;;;;20829009;28;20250;-62
2022/03/20 07:52:45;;;;;;;37.93;25.27;;;9.20;56.60;;;;;;20926665;28;20583;-64
2022/03/20 08:02:53;;;;;;;34.10;23.73;;;9.40;56.30;;;;;;20925778;28;20215;-66
2022/03/20 08:12:56;;;;;;;33.00;25.17;;;9.40;56.70;;;;;;20914929;28;20812;-66
2022/03/20 08:22:58;;;;;;;36.87;22.40;;;9.90;54.70;;;;;;20916424;28;20207;-63
2022/03/20 08:32:59;;;;;;;30.47;21.17;;;9.90;55.20;;;;;;20916113;28;20255;-67
2022/03/20 08:43:04;;;;;;;34.30;22.03;;;10.20;53.10;;;;;;20903529;28;20736;-64
2022/03/20 08:53:06;;;;;;;30.03;20.67;;;10.20;53.30;;;;;;20831255;28;20267;-64
2022/03/20 09:03:10;;;;;;;31.43;20.53;;;10.40;52.20;;;;;;20831397;28;20257;-65
2022/03/20 09:13:12;;;;;;;28.03;19.57;;;10.70;51.60;;;;;;20829410;28;20336;-63
2022/03/20 09:23:14;;;;;;;29.40;20.47;;;10.90;51.30;;;;;;20828883;28;20200;-64
2022/03/20 09:33:16;;;;;;;27.67;19.67;;;11.10;51.00;;;;;;20828638;28;20279;-67
2022/03/20 09:43:18;;;;;;;26.57;19.40;;;11.20;50.90;;;;;;20841775;28;20206;-64
2022/03/20 09:53:21;;;;;;;31.67;20.47;;;11.30;51.30;;;;;;20910320;28;20242;-66
2022/03/20 10:03:24;;;;;;;27.20;19.07;;;11.60;50.50;;;;;;20910678;28;20206;-65
2022/03/20 10:13:26;;;;;;;28.57;18.97;;;12.00;50.40;;;;;;20910095;28;20235;-67
2022/03/20 10:23:29;;;;;;;27.67;20.17;;;12.00;50.90;;;;;;20908668;28;20217;-65
2022/03/20 10:33:31;;;;;;;27.67;19.30;;;12.30;49.90;;;;;;20909322;28;20632;-64
2022/03/20 10:43:41;;;;;;;26.17;18.57;;;12.50;49.60;;;;;;20903885;28;20201;-63
2022/03/20 10:54:01;;;;;;;29.40;18.47;;;12.70;49.20;;;;;;20840558;28;20240;-64
2022/03/20 11:04:05;;;;;;;27.37;17.33;;;12.80;49.60;;;;;;20840350;28;20643;-66
2022/03/20 11:14:10;;;;;;;24.87;16.83;;;13.00;48.90;;;;;;20838866;28;20274;-64
2022/03/20 11:24:15;;;;;;;23.13;16.80;;;13.30;48.60;;;;;;20839384;28;20731;-69
2022/03/20 11:41:23;;;;;;;25.40;18.07;;;13.70;47.90;;;;;;21235880;27;20574;-65
2022/03/20 11:51:50;;;;;;;22.63;15.90;;;13.90;47.80;;;;;;21236519;27;20225;-65
2022/03/20 12:02:01;;;;;;;24.47;17.30;;;14.00;48.50;;;;;;21240311;27;20663;-65
2022/03/20 12:12:09;;;;;;;23.63;16.77;;;14.40;47.40;;;;;;21233143;27;20227;-63
2022/03/20 12:22:16;;;;;;;23.87;17.20;;;14.80;47.10;;;;;;21233951;27;20653;-64
2022/03/20 12:32:22;;;;;;;24.97;17.57;;;14.80;47.60;;;;;;21238661;27;20630;-66
2022/03/20 12:42:24;;;;;;;24.03;16.90;;;15.30;46.70;;;;;;21229749;27;20606;-64
2022/03/20 12:52:27;;;;;;;28.87;18.00;;;15.40;46.90;;;;;;21093648;28;20291;-64
2022/03/20 13:02:34;;;;;;;25.73;18.57;;;15.70;46.10;;;;;;21090972;28;20206;-66
2022/03/20 13:13:01;;;;;;;27.17;18.60;;;15.90;46.30;;;;;;21088777;28;20242;-64
2022/03/20 13:23:11;;;;;;;24.60;17.93;;;16.10;45.90;;;;;;21087863;28;20973;-65
2022/03/20 13:33:13;;;;;;;24.77;17.63;;;16.30;46.00;;;;;;21086813;28;20243;-65
2022/03/20 13:43:22;;;;;;;25.03;17.43;;;16.70;45.00;;;;;;21100592;28;20211;-67
2022/03/20 13:53:27;;;;;;;25.23;17.37;;;16.70;44.70;;;;;;21170495;28;20240;-65
2022/03/20 14:03:33;;;;;;;21.60;16.30;;;16.90;45.00;;;;;;21168031;27;20203;-66
2022/03/20 14:13:42;;;;;;;22.37;16.37;;;17.20;44.50;;;;;;21167478;28;20267;-66
2022/03/20 14:24:02;;;;;;;21.83;16.20;;;18.10;43.10;;;;;;21167009;28;20219;-64
2022/03/20 14:44:29;;;;;;;20.83;15.37;;;21.70;39.90;;;;;;21142405;28;20628;-66
2022/03/20 14:54:31;;;;;;;21.40;14.50;;;22.80;37.70;;;;;;21080495;28;20238;-66
2022/03/20 15:04:34;;;;;;;21.77;14.77;;;23.00;37.80;;;;;;21080373;28;20599;-68
2022/03/20 15:14:36;;;;;;;17.10;13.90;;;23.70;35.90;;;;;;21078983;28;20240;-66
2022/03/20 15:24:38;;;;;;;20.03;14.10;;;23.90;33.80;;;;;;21077551;28;20208;-65
2022/03/20 15:34:43;;;;;;;20.23;14.17;;;23.30;32.70;;;;;;21078576;28;20241;-64
2022/03/20 15:44:45;;;;;;;18.63;13.33;;;21.40;33.90;;;;;;21103903;28;20202;-65
2022/03/20 15:54:47;;;;;;;20.67;13.00;;;20.00;33.30;;;;;;21161612;28;20283;-65
2022/03/20 16:04:49;;;;;;;18.90;13.23;;;19.70;34.00;;;;;;21161575;28;20209;-65
2022/03/20 16:14:50;;;;;;;17.80;13.90;;;18.80;34.50;;;;;;21160610;28;20239;-63
2022/03/20 16:35:14;;;;;;;18.63;13.23;;;17.20;34.60;;;;;;21175492;28;20283;-64
2022/03/20 16:45:17;;;;;;;18.37;12.80;;;17.20;35.20;;;;;;21149840;28;20203;-63
2022/03/20 16:55:19;;;;;;;20.83;13.17;;;16.90;35.60;;;;;;21094766;28;20598;-63
2022/03/20 17:05:21;;;;;;;20.57;13.53;;;16.60;35.80;;;;;;21089722;28;20209;-69
2022/03/20 17:15:23;;;;;;;21.60;12.73;;;16.20;36.10;;;;;;21088312;28;20238;-68
2022/03/20 17:25:26;;;;;;;18.60;12.97;;;16.00;36.00;;;;;;21088068;28;20229;-67
2022/03/20 17:35:29;;;;;;;18.07;13.07;;;15.60;36.10;;;;;;21087351;28;20250;-65
2022/03/20 17:45:34;;;;;;;20.60;13.10;;;15.50;36.40;;;;;;21118053;28;20205;-66
2022/03/20 17:55:36;;;;;;;19.77;13.97;;;15.50;37.20;;;;;;21169775;28;20652;-64
2022/03/20 18:15:58;;;;;;;25.27;14.53;;;14.80;38.40;;;;;;21167784;28;20241;-67
2022/03/20 18:26:00;;;;;;;21.70;15.60;;;14.70;39.10;;;;;;21148786;28;20243;-65
2022/03/20 18:36:02;;;;;;;19.80;14.83;;;14.40;39.90;;;;;;21163728;28;20245;-68
2022/03/20 18:46:05;;;;;;;21.87;14.57;;;14.40;40.70;;;;;;21127328;28;20607;-67
2022/03/20 18:56:07;;;;;;;23.43;15.07;;;14.10;41.20;;;;;;21080347;28;20662;-65
2022/03/20 19:06:09;;;;;;;22.77;15.93;;;14.10;41.90;;;;;;21078324;28;20206;-70
2022/03/20 19:16:11;;;;;;;23.20;15.10;;;13.90;42.40;;;;;;21079154;28;20291;-67
2022/03/20 19:26:13;;;;;;;19.90;14.70;;;13.60;42.80;;;;;;21078419;28;20206;-70
2022/03/20 19:46:34;;;;;;;20.53;14.67;;;13.30;43.50;;;;;;21118780;28;20259;-64
2022/03/20 19:56:36;;;;;;;19.17;13.53;;;13.20;43.70;;;;;;21166461;28;20329;-62
2022/03/20 20:06:38;;;;;;;22.00;15.10;;;13.10;43.90;;;;;;21178171;28;20258;-64
2022/03/20 20:16:40;;;;;;;24.10;15.43;;;12.90;44.00;;;;;;21176008;28;20243;-65
2022/03/20 20:26:42;;;;;;;19.17;14.13;;;12.80;44.20;;;;;;21174427;28;20577;-67
2022/03/20 20:36:44;;;;;;;21.87;13.90;;;12.60;44.50;;;;;;21173295;28;20325;-65
2022/03/20 20:46:47;;;;;;;19.33;13.80;;;12.60;45.00;;;;;;21129695;28;20256;-67
2022/03/20 20:56:50;;;;;;;25.20;13.23;;;12.50;44.50;;;;;;21089337;28;20595;-67
2022/03/20 21:17:12;;;;;;;20.53;13.33;;;12.30;44.50;;;;;;21088085;28;20228;-66
2022/03/20 21:27:14;;;;;;;21.80;13.17;;;12.30;44.50;;;;;;21087518;28;20209;-65
2022/03/20 21:37:16;;;;;;;17.77;11.90;;;12.10;44.30;;;;;;21086935;28;20299;-64
2022/03/20 21:47:18;;;;;;;17.50;11.97;;;12.10;44.80;;;;;;21093019;28;20574;-65
2022/03/20 21:57:19;;;;;;;18.57;12.53;;;11.90;44.20;;;;;;21085979;28;20263;-65
2022/03/20 22:07:22;;;;;;;18.77;12.57;;;11.80;44.40;;;;;;21084262;28;20257;-64
2022/03/20 22:17:24;;;;;;;19.40;12.93;;;11.70;45.00;;;;;;21081644;28;20235;-64
2022/03/20 22:27:30;;;;;;;17.40;12.80;;;11.20;45.60;;;;;;21082538;28;20211;-65
2022/03/20 22:37:40;;;;;;;19.73;12.93;;;11.20;45.80;;;;;;21082164;28;20636;-65
2022/03/20 22:47:43;;;;;;;18.43;12.57;;;11.00;46.40;;;;;;21082102;28;20247;-65
2022/03/20 22:57:47;;;;;;;20.20;13.33;;;10.80;46.80;;;;;;21080366;28;20239;-65
2022/03/20 23:07:51;;;;;;;17.27;12.30;;;10.30;47.10;;;;;;21080007;28;20216;-65
2022/03/20 23:17:53;;;;;;;19.27;12.70;;;10.30;47.40;;;;;;21079567;28;20280;-64
2022/03/20 23:27:55;;;;;;;17.73;12.37;;;10.20;48.10;;;;;;21078588;28;20237;-64
2022/03/20 23:37:57;;;;;;;18.17;12.43;;;10.00;47.40;;;;;;21077923;28;20647;-63
2022/03/20 23:47:58;;;;;;;22.07;12.27;;;10.00;48.00;;;;;;21078421;28;20205;-63
2022/03/20 23:58:07;;;;;;;19.63;12.23;;;9.80;50.40;;;;;;21077237;28;20240;-64
